createdAt,value
2023-05-19T00:00:34.251Z,64610.55
2023-05-19T00:01:37.438Z,64610.00
2023-05-19T00:02:40.664Z,64601.88
2023-05-19T00:03:51.337Z,64618.65
2023-05-19T00:04:54.363Z,64611.66
2023-05-19T00:05:57.846Z,64615.53
2023-05-19T00:07:03.162Z,64619.30
2023-05-19T00:08:06.947Z,64612.21
2023-05-19T00:09:11.389Z,64604.11
2023-05-19T00:10:14.853Z,64613.21
2023-05-19T00:11:17.214Z,64599.34
2023-05-19T00:12:19.691Z,64603.89
2023-05-19T00:13:22.809Z,64597.25
2023-05-19T00:14:25.891Z,64595.04
2023-05-19T00:15:28.439Z,64591.18
2023-05-19T00:16:31.277Z,64597.47
2023-05-19T00:17:33.348Z,64603.34
2023-05-19T00:18:36.321Z,64596.36
2023-05-19T00:19:38.485Z,64586.40
2023-05-19T00:20:40.472Z,64586.40
2023-05-19T00:21:42.393Z,64600.57
2023-05-19T00:22:44.417Z,64599.48
2023-05-19T00:23:46.429Z,64592.84
2023-05-19T00:24:48.937Z,64595.04
2023-05-19T00:25:50.921Z,64591.37
2023-05-19T00:26:52.935Z,64589.06
2023-05-19T00:27:54.863Z,64591.27
2023-05-19T00:28:56.949Z,64586.31
2023-05-19T00:29:58.858Z,64596.16
2023-05-19T00:31:01.539Z,64590.17
2023-05-19T00:32:04.305Z,64582.34
2023-05-19T00:33:06.338Z,64585.30
2023-05-19T00:34:08.411Z,64584.19
2023-05-19T00:35:10.984Z,64567.05
2023-05-19T00:36:14.312Z,64578.56
2023-05-19T00:37:16.344Z,64581.99
2023-05-19T00:38:18.466Z,64582.88
2023-05-19T00:39:20.523Z,64584.08
2023-05-19T00:40:25.970Z,64580.77
2023-05-19T00:41:28.787Z,64585.74
2023-05-19T00:42:31.432Z,64576.90
2023-05-19T00:43:33.558Z,64587.31
2023-05-19T00:44:39.200Z,64582.88
2023-05-19T00:45:41.297Z,64585.09
2023-05-19T00:46:43.691Z,64578.47
2023-05-19T00:47:46.521Z,64578.67
2023-05-19T00:48:48.649Z,64581.33
2023-05-19T00:49:50.667Z,64581.33
2023-05-19T00:50:55.494Z,64586.20
2023-05-19T00:51:58.869Z,64586.20
2023-05-19T00:53:00.995Z,64572.93
2023-05-19T00:54:03.658Z,64570.27
2023-05-19T00:55:07.309Z,64575.81
2023-05-19T00:56:10.046Z,64575.70
2023-05-19T00:57:13.647Z,64578.01
2023-05-19T00:58:16.498Z,64572.93
2023-05-19T00:59:18.419Z,64577.36
2023-05-19T01:00:20.619Z,64570.72
2023-05-19T01:01:22.777Z,64566.51
2023-05-19T01:02:26.930Z,64566.51
2023-05-19T01:03:31.471Z,64573.58
2023-05-19T01:04:36.957Z,64568.52
2023-05-19T01:05:40.787Z,64568.60
2023-05-19T01:06:43.205Z,64555.44
2023-05-19T01:07:45.458Z,64559.68
2023-05-19T01:08:47.347Z,64562.54
2023-05-19T01:09:49.367Z,64558.76
2023-05-19T01:10:51.335Z,64551.47
2023-05-19T01:11:53.258Z,64543.63
2023-05-19T01:12:55.149Z,64550.83
2023-05-19T01:13:57.093Z,64541.97
2023-05-19T01:15:00.051Z,64546.40
2023-05-19T01:16:09.041Z,64549.81
2023-05-19T01:17:26.804Z,64556.36
2023-05-19T01:19:57.944Z,64554.13
2023-05-19T01:21:20.593Z,64549.17
2023-05-19T01:22:43.091Z,64546.60
2023-05-19T01:23:48.902Z,64546.05
2023-05-19T01:25:00.288Z,64549.26
2023-05-19T01:26:41.478Z,64549.26
2023-05-19T01:28:07.149Z,64545.95
2023-05-19T01:29:35.463Z,64539.22
2023-05-19T01:30:41.102Z,64541.97
2023-05-19T01:31:44.655Z,64533.79
2023-05-19T01:32:47.872Z,64515.20
2023-05-19T01:33:52.771Z,64534.70
2023-05-19T01:34:56.346Z,64522.29
2023-05-19T01:35:59.697Z,64531.47
2023-05-19T01:37:03.231Z,64522.09
2023-05-19T01:38:08.227Z,64492.33
2023-05-19T01:39:10.751Z,64501.51
2023-05-19T01:40:13.945Z,64505.70
2023-05-19T01:41:18.017Z,64521.54
2023-05-19T01:42:20.646Z,64513.79
2023-05-19T01:43:25.836Z,64514.91
2023-05-19T01:44:28.811Z,64512.79
2023-05-19T01:45:33.530Z,64523.64
2023-05-19T01:46:37.493Z,64522.63
2023-05-19T01:47:42.322Z,64520.08
2023-05-19T01:48:45.075Z,64519.52
2023-05-19T01:49:46.973Z,64520.43
2023-05-19T01:50:49.156Z,64515.00
2023-05-19T01:51:52.426Z,64521.98
2023-05-19T01:52:54.998Z,64517.11
2023-05-19T01:53:56.994Z,64504.39
2023-05-19T01:54:59.180Z,64502.16
2023-05-19T01:56:01.314Z,64506.14
2023-05-19T01:57:30.815Z,64512.68
2023-05-19T01:58:39.310Z,64501.62
2023-05-19T01:59:53.661Z,64496.64
2023-05-19T02:01:16.205Z,64492.87
2023-05-19T02:02:22.076Z,64494.53
2023-05-19T02:05:04.202Z,64492.24
2023-05-19T02:06:16.840Z,64492.87
2023-05-19T02:07:37.168Z,64481.18
2023-05-19T02:08:59.803Z,64486.70
2023-05-19T02:10:08.269Z,64481.18
2023-05-19T02:11:19.956Z,64485.15
2023-05-19T02:12:34.229Z,64494.44
2023-05-19T02:13:39.607Z,64491.12
2023-05-19T02:15:00.146Z,64489.46
2023-05-19T02:16:06.964Z,64491.23
2023-05-19T02:17:12.419Z,64497.76
2023-05-19T02:18:15.231Z,64492.79
2023-05-19T02:19:26.598Z,64490.58
2023-05-19T02:20:28.868Z,64486.15
2023-05-19T02:21:31.909Z,64486.15
2023-05-19T02:22:34.192Z,64481.72
2023-05-19T02:23:36.088Z,64474.11
2023-05-19T02:24:38.055Z,64483.95
2023-05-19T02:25:39.968Z,64479.52
2023-05-19T02:26:42.169Z,64463.71
2023-05-19T02:27:44.040Z,64483.18
2023-05-19T02:28:45.952Z,64478.86
2023-05-19T02:29:47.983Z,64481.18
2023-05-19T02:30:50.214Z,64475.66
2023-05-19T02:31:52.160Z,64475.66
2023-05-19T02:32:54.219Z,64467.91
2023-05-19T02:33:56.318Z,64474.45
2023-05-19T02:34:58.277Z,64472.34
2023-05-19T02:36:00.409Z,64473.45
2023-05-19T02:37:02.326Z,64477.86
2023-05-19T02:38:04.364Z,64481.09
2023-05-19T02:39:06.669Z,64475.66
2023-05-19T02:40:09.203Z,64478.52
2023-05-19T02:41:11.114Z,64475.20
2023-05-19T02:42:13.093Z,64472.45
2023-05-19T02:43:14.993Z,64476.77
2023-05-19T02:44:16.939Z,64472.34
2023-05-19T02:45:18.877Z,64469.22
2023-05-19T02:46:21.125Z,64471.88
2023-05-19T02:47:23.109Z,64472.34
2023-05-19T02:48:25.352Z,64472.34
2023-05-19T02:49:27.355Z,64473.54
2023-05-19T02:50:29.364Z,64471.23
2023-05-19T02:51:31.345Z,64471.45
2023-05-19T02:52:33.225Z,64472.54
2023-05-19T02:53:36.420Z,64475.66
2023-05-19T02:54:38.400Z,64464.62
2023-05-19T02:55:40.274Z,64471.23
2023-05-19T02:56:42.278Z,64471.45
2023-05-19T02:57:44.156Z,64474.00
2023-05-19T02:58:46.027Z,64466.82
2023-05-19T02:59:48.437Z,64474.54
2023-05-19T03:00:50.422Z,64478.31
2023-05-19T03:01:54.961Z,64467.91
2023-05-19T03:02:57.148Z,64475.66
2023-05-19T03:03:59.250Z,64469.93
2023-05-19T03:05:01.708Z,64476.20
2023-05-19T03:06:04.200Z,64475.66
2023-05-19T03:07:06.078Z,64469.14
2023-05-19T03:08:08.072Z,64482.74
2023-05-19T03:09:10.042Z,64475.66
2023-05-19T03:10:12.215Z,64469.22
2023-05-19T03:11:14.099Z,64471.23
2023-05-19T03:12:15.987Z,64480.09
2023-05-19T03:13:17.947Z,64472.89
2023-05-19T03:14:19.971Z,64479.43
2023-05-19T03:15:21.876Z,64479.97
2023-05-19T03:16:24.331Z,64477.31
2023-05-19T03:17:26.621Z,64475.20
2023-05-19T03:18:29.481Z,64474.54
2023-05-19T03:19:31.804Z,64466.82
2023-05-19T03:20:34.183Z,64474.54
2023-05-19T03:21:36.506Z,64486.61
2023-05-19T03:22:38.414Z,64484.60
2023-05-19T03:23:40.457Z,64487.81
2023-05-19T03:24:42.468Z,64490.01
2023-05-19T03:25:44.480Z,64490.58
2023-05-19T03:26:46.570Z,64492.79
2023-05-19T03:27:48.584Z,64473.11
2023-05-19T03:28:50.596Z,64473.11
2023-05-19T03:29:52.494Z,64496.45
2023-05-19T03:30:54.556Z,64493.33
2023-05-19T03:31:57.602Z,64491.12
2023-05-19T03:32:59.616Z,64499.30
2023-05-19T03:34:01.632Z,64487.35
2023-05-19T03:35:05.052Z,64491.67
2023-05-19T03:36:07.388Z,64490.67
2023-05-19T03:37:09.296Z,64487.35
2023-05-19T03:38:11.241Z,64489.46
2023-05-19T03:39:13.226Z,64479.72
2023-05-19T03:40:16.369Z,64487.26
2023-05-19T03:41:18.275Z,64479.63
2023-05-19T03:42:20.184Z,64477.86
2023-05-19T03:43:22.209Z,64482.18
2023-05-19T03:44:24.092Z,64488.92
2023-05-19T03:45:26.094Z,64484.49
2023-05-19T03:46:28.443Z,64478.43
2023-05-19T03:47:30.607Z,64478.52
2023-05-19T03:48:33.675Z,64490.67
2023-05-19T03:49:35.574Z,64485.15
2023-05-19T03:50:37.580Z,64487.26
2023-05-19T03:51:39.505Z,64486.81
2023-05-19T03:52:42.152Z,64484.69
2023-05-19T03:53:44.230Z,64487.81
2023-05-19T03:54:46.151Z,64487.81
2023-05-19T03:55:48.418Z,64494.33
2023-05-19T03:56:50.470Z,64490.01
2023-05-19T03:57:52.386Z,64485.15
2023-05-19T03:58:54.614Z,64490.67
2023-05-19T03:59:56.600Z,64490.12
2023-05-19T04:00:58.802Z,64491.23
2023-05-19T04:02:03.735Z,64489.01
2023-05-19T04:03:06.362Z,64497.76
2023-05-19T04:04:08.457Z,64502.73
2023-05-19T04:05:10.715Z,64496.64
2023-05-19T04:06:13.262Z,64493.98
2023-05-19T04:07:15.354Z,64498.96
2023-05-19T04:08:17.799Z,64501.27
2023-05-19T04:09:21.014Z,64507.71
2023-05-19T04:10:23.037Z,64495.75
2023-05-19T04:11:25.345Z,64496.84
2023-05-19T04:12:27.271Z,64504.17
2023-05-19T04:13:29.872Z,64483.18
2023-05-19T04:14:31.791Z,64492.24
2023-05-19T04:15:34.787Z,64485.61
2023-05-19T04:16:37.693Z,64494.90
2023-05-19T04:17:40.002Z,64494.24
2023-05-19T04:18:42.068Z,64497.76
2023-05-19T04:19:44.022Z,64487.81
2023-05-19T04:20:46.046Z,64492.33
2023-05-19T04:21:48.027Z,64487.46
2023-05-19T04:22:49.948Z,64496.84
2023-05-19T04:23:51.973Z,64483.60
2023-05-19T04:24:54.058Z,64497.76
2023-05-19T04:25:55.986Z,64495.64
2023-05-19T04:26:58.044Z,64502.07
2023-05-19T04:27:59.946Z,64494.44
2023-05-19T04:29:01.907Z,64493.44
2023-05-19T04:30:05.321Z,64484.49
2023-05-19T04:31:07.871Z,64492.33
2023-05-19T04:32:09.845Z,64490.67
2023-05-19T04:33:12.195Z,64495.10
2023-05-19T04:34:14.358Z,64493.53
2023-05-19T04:35:16.409Z,64495.75
2023-05-19T04:36:18.604Z,64485.80
2023-05-19T04:37:20.594Z,64493.53
2023-05-19T04:38:22.653Z,64499.30
2023-05-19T04:39:24.699Z,64495.75
2023-05-19T04:40:27.195Z,64491.12
2023-05-19T04:41:29.303Z,64486.35
2023-05-19T04:42:31.793Z,64499.41
2023-05-19T04:43:33.680Z,64469.57
2023-05-19T04:44:35.572Z,64475.86
2023-05-19T04:45:37.437Z,64475.86
2023-05-19T04:46:39.525Z,64472.45
2023-05-19T04:47:41.481Z,64478.52
2023-05-19T04:48:43.708Z,64482.84
2023-05-19T04:49:45.589Z,64467.71
2023-05-19T04:50:47.560Z,64466.91
2023-05-19T04:51:49.573Z,64473.45
2023-05-19T04:52:51.462Z,64459.73
2023-05-19T04:53:57.676Z,64449.24
2023-05-19T04:54:59.727Z,64482.09
2023-05-19T04:56:01.842Z,64481.18
2023-05-19T04:57:05.022Z,64461.73
2023-05-19T04:58:06.954Z,64473.45
2023-05-19T04:59:09.530Z,64477.43
2023-05-19T05:00:13.178Z,64487.26
2023-05-19T05:01:15.613Z,64495.53
2023-05-19T05:02:17.934Z,64487.81
2023-05-19T05:03:20.131Z,64493.89
2023-05-19T05:04:23.257Z,64491.67
2023-05-19T05:05:25.290Z,64492.24
2023-05-19T05:06:27.599Z,64500.42
2023-05-19T05:07:31.646Z,64497.85
2023-05-19T05:08:33.536Z,64503.82
2023-05-19T05:09:35.826Z,64483.95
2023-05-19T05:10:38.027Z,64484.04
2023-05-19T05:11:40.813Z,64491.58
2023-05-19T05:12:43.350Z,64501.07
2023-05-19T05:13:46.213Z,64508.25
2023-05-19T05:14:48.965Z,64507.14
2023-05-19T05:15:51.578Z,64507.14
2023-05-19T05:16:54.477Z,64519.66
2023-05-19T05:17:58.078Z,64510.13
2023-05-19T05:19:01.438Z,64520.32
2023-05-19T05:20:04.835Z,64503.82
2023-05-19T05:21:07.894Z,64513.79
2023-05-19T05:22:10.682Z,64507.82
2023-05-19T05:23:13.407Z,64507.82
2023-05-19T05:24:16.397Z,64510.48
2023-05-19T05:25:19.624Z,64517.66
2023-05-19T05:26:22.568Z,64520.52
2023-05-19T05:27:24.465Z,64524.49
2023-05-19T05:28:26.384Z,64529.16
2023-05-19T05:29:28.387Z,64526.50
2023-05-19T05:30:30.850Z,64527.81
2023-05-19T05:31:32.787Z,64532.70
2023-05-19T05:32:34.991Z,64529.38
2023-05-19T05:33:38.305Z,64539.11
2023-05-19T05:34:40.612Z,64538.65
2023-05-19T05:35:42.513Z,64539.77
2023-05-19T05:36:44.613Z,64537.11
2023-05-19T05:37:46.533Z,64542.63
2023-05-19T05:38:48.994Z,64540.88
2023-05-19T05:39:51.065Z,64548.61
2023-05-19T05:40:53.254Z,64545.86
2023-05-19T05:41:55.301Z,64546.51
2023-05-19T05:42:58.331Z,64553.04
2023-05-19T05:44:04.088Z,64553.12
2023-05-19T05:45:07.178Z,64543.63
2023-05-19T05:46:11.231Z,64550.38
2023-05-19T05:47:14.680Z,64555.24
2023-05-19T05:48:17.483Z,64538.22
2023-05-19T05:49:20.169Z,64554.24
2023-05-19T05:50:22.888Z,64560.22
2023-05-19T05:51:25.477Z,64551.38
2023-05-19T05:52:30.292Z,64545.29
2023-05-19T05:53:36.204Z,64551.93
2023-05-19T05:54:38.877Z,64554.70
2023-05-19T05:55:41.728Z,64554.13
2023-05-19T05:56:45.565Z,64551.38
2023-05-19T05:57:48.496Z,64562.43
2023-05-19T05:58:50.487Z,64562.43
2023-05-19T05:59:52.919Z,64561.88
2023-05-19T06:00:55.162Z,64560.22
2023-05-19T06:01:57.245Z,64563.62
2023-05-19T06:02:59.539Z,64566.51
2023-05-19T06:04:01.626Z,64542.08
2023-05-19T06:05:04.260Z,64562.88
2023-05-19T06:06:09.602Z,64558.10
2023-05-19T06:07:11.670Z,64556.36
2023-05-19T06:08:13.553Z,64568.41
2023-05-19T06:09:15.696Z,64564.74
2023-05-19T06:10:17.817Z,64574.93
2023-05-19T06:11:19.816Z,64576.81
2023-05-19T06:12:21.836Z,64569.61
2023-05-19T06:13:24.277Z,64572.27
2023-05-19T06:14:27.116Z,64573.49
2023-05-19T06:15:29.059Z,64573.38
2023-05-19T06:16:31.195Z,64577.36
2023-05-19T06:17:35.037Z,64581.33
2023-05-19T06:18:37.185Z,64588.41
2023-05-19T06:19:39.224Z,64586.75
2023-05-19T06:20:41.280Z,64555.35
2023-05-19T06:21:43.335Z,64551.93
2023-05-19T06:22:45.654Z,64550.38
2023-05-19T06:23:47.566Z,64573.49
2023-05-19T06:24:49.573Z,64582.42
2023-05-19T06:25:51.635Z,64585.74
2023-05-19T06:26:55.424Z,64580.22
2023-05-19T06:27:57.490Z,64581.77
2023-05-19T06:28:59.483Z,64596.36
2023-05-19T06:30:01.783Z,64611.09
2023-05-19T06:31:03.864Z,64613.52
2023-05-19T06:32:06.025Z,64621.16
2023-05-19T06:33:07.982Z,64607.88
2023-05-19T06:34:10.121Z,64627.14
2023-05-19T06:35:12.100Z,64626.79
2023-05-19T06:36:14.413Z,64635.07
2023-05-19T06:37:16.465Z,64638.39
2023-05-19T06:38:18.515Z,64658.12
2023-05-19T06:39:21.642Z,64636.19
2023-05-19T06:40:23.877Z,64648.16
2023-05-19T06:41:25.745Z,64656.55
2023-05-19T06:42:28.094Z,64647.81
2023-05-19T06:43:30.207Z,64619.59
2023-05-19T06:44:33.438Z,64616.73
2023-05-19T06:45:35.444Z,64653.14
2023-05-19T06:46:37.461Z,64624.29
2023-05-19T06:47:39.556Z,64627.14
2023-05-19T06:48:41.568Z,64655.00
2023-05-19T06:50:55.901Z,64693.06
2023-05-19T06:51:57.780Z,64699.05
2023-05-19T06:53:01.252Z,64710.70
2023-05-19T06:54:03.257Z,64722.32
2023-05-19T06:55:06.560Z,64720.75
2023-05-19T06:56:08.859Z,64731.83
2023-05-19T06:57:10.734Z,64737.36
2023-05-19T06:58:12.646Z,64743.35
2023-05-19T06:59:14.511Z,64742.99
2023-05-19T07:00:32.171Z,64741.79
2023-05-19T07:01:21.351Z,64719.65
2023-05-19T07:02:23.297Z,64725.64
2023-05-19T07:03:25.271Z,64739.57
2023-05-19T07:04:27.310Z,64725.18
2023-05-19T07:05:29.285Z,64725.18
2023-05-19T07:06:35.202Z,64749.45
2023-05-19T07:07:37.883Z,64727.85
2023-05-19T07:08:39.820Z,64739.57
2023-05-19T07:09:42.249Z,64756.64
2023-05-19T07:10:45.000Z,64760.70
2023-05-19T07:11:46.986Z,64761.25
2023-05-19T07:12:49.111Z,64775.82
2023-05-19T07:13:51.112Z,64774.00
2023-05-19T07:14:53.012Z,64734.14
2023-05-19T07:15:54.933Z,64771.22
2023-05-19T07:16:56.988Z,64790.07
2023-05-19T07:17:58.877Z,64757.73
2023-05-19T07:19:00.894Z,64755.07
2023-05-19T07:20:03.623Z,64777.68
2023-05-19T07:21:05.514Z,64806.48
2023-05-19T07:22:07.390Z,64811.57
2023-05-19T07:23:09.281Z,64815.54
2023-05-19T07:24:11.281Z,64795.52
2023-05-19T07:25:13.279Z,64798.92
2023-05-19T07:26:15.363Z,64820.34
2023-05-19T07:27:18.070Z,64820.61
2023-05-19T07:28:19.962Z,64847.57
2023-05-19T07:29:21.966Z,64860.96
2023-05-19T07:30:25.891Z,64808.43
2023-05-19T07:31:28.122Z,64838.14
2023-05-19T07:32:30.126Z,64809.25
2023-05-19T07:33:32.241Z,64818.22
2023-05-19T07:34:34.346Z,64847.47
2023-05-19T07:35:36.922Z,64864.39
2023-05-19T07:36:39.117Z,64874.26
2023-05-19T07:37:41.144Z,64864.83
2023-05-19T07:38:43.042Z,64882.60
2023-05-19T07:39:45.150Z,64888.68
2023-05-19T07:40:47.356Z,64878.16
2023-05-19T07:41:49.325Z,64849.89
2023-05-19T07:42:51.236Z,64850.98
2023-05-19T07:43:53.154Z,64808.89
2023-05-19T07:44:55.108Z,64842.12
2023-05-19T07:45:57.119Z,64802.71
2023-05-19T07:46:59.659Z,64824.40
2023-05-19T07:48:01.736Z,64826.97
2023-05-19T07:49:05.975Z,64826.43
2023-05-19T07:50:08.915Z,64850.33
2023-05-19T07:51:11.847Z,64862.98
2023-05-19T07:52:13.854Z,64860.86
2023-05-19T07:53:15.733Z,64862.62
2023-05-19T07:54:17.811Z,64873.69
2023-05-19T07:55:19.704Z,64889.14
2023-05-19T07:56:21.804Z,64891.36
2023-05-19T07:57:23.796Z,64864.83
2023-05-19T07:58:26.011Z,64870.75
2023-05-19T07:59:28.061Z,64862.81
2023-05-19T08:00:30.312Z,64853.21
2023-05-19T08:01:32.216Z,64874.81
2023-05-19T08:02:34.320Z,64882.03
2023-05-19T08:03:36.390Z,64882.03
2023-05-19T08:04:38.463Z,64887.38
2023-05-19T08:05:40.582Z,64879.27
2023-05-19T08:06:43.721Z,64897.55
2023-05-19T08:07:46.016Z,64908.64
2023-05-19T08:08:47.950Z,64904.85
2023-05-19T08:09:50.553Z,64878.16
2023-05-19T08:10:52.576Z,64924.61
2023-05-19T08:11:54.648Z,64973.43
2023-05-19T08:12:56.664Z,64947.33
2023-05-19T08:13:58.572Z,64914.64
2023-05-19T08:15:01.623Z,64919.07
2023-05-19T08:16:04.495Z,64943.55
2023-05-19T08:17:07.446Z,64961.86
2023-05-19T08:18:09.822Z,64974.70
2023-05-19T08:19:12.631Z,64971.20
2023-05-19T08:20:15.133Z,64996.80
2023-05-19T08:21:17.139Z,64977.85
2023-05-19T08:22:19.151Z,64987.37
2023-05-19T08:23:21.165Z,64987.84
2023-05-19T08:24:23.225Z,64982.95
2023-05-19T08:25:25.374Z,64989.13
2023-05-19T08:26:28.250Z,64965.11
2023-05-19T08:27:31.565Z,65002.35
2023-05-19T08:28:33.480Z,65002.35
2023-05-19T08:29:35.444Z,65023.96
2023-05-19T08:30:37.460Z,65077.25
2023-05-19T08:31:39.816Z,65083.27
2023-05-19T08:32:41.918Z,64990.70
2023-05-19T08:33:44.246Z,65006.87
2023-05-19T08:34:46.294Z,65078.37
2023-05-19T08:35:48.735Z,65080.58
2023-05-19T08:36:50.861Z,65080.40
2023-05-19T08:38:54.820Z,65016.66
2023-05-19T08:39:57.931Z,64999.10
2023-05-19T08:41:00.186Z,64977.95
2023-05-19T08:42:02.104Z,65021.11
2023-05-19T08:43:04.128Z,65001.78
2023-05-19T08:44:06.282Z,64971.76
2023-05-19T08:45:09.374Z,64964.09
2023-05-19T08:46:13.527Z,64982.95
2023-05-19T08:47:17.078Z,64995.14
2023-05-19T08:48:19.742Z,64950.66
2023-05-19T08:49:25.808Z,64997.90
2023-05-19T08:50:31.147Z,65024.54
2023-05-19T08:51:37.041Z,64998.08
2023-05-19T08:52:51.845Z,64983.39
2023-05-19T08:53:57.059Z,64985.80
2023-05-19T08:55:05.718Z,64990.23
2023-05-19T08:56:11.366Z,65022.30
2023-05-19T08:57:13.935Z,64995.14
2023-05-19T08:58:17.848Z,64963.16
2023-05-19T08:59:22.256Z,64978.32
2023-05-19T09:00:26.176Z,64961.31
2023-05-19T09:01:28.628Z,64957.88
2023-05-19T09:02:31.243Z,64980.71
2023-05-19T09:03:34.844Z,64982.95
2023-05-19T09:04:39.223Z,64964.64
2023-05-19T09:05:41.280Z,64972.31
2023-05-19T09:06:43.562Z,64991.89
2023-05-19T09:07:45.976Z,64968.98
2023-05-19T09:08:48.014Z,65005.58
2023-05-19T09:09:49.952Z,65020.09
2023-05-19T09:10:51.990Z,65018.97
2023-05-19T09:11:53.999Z,65023.96
2023-05-19T09:12:55.880Z,65035.07
2023-05-19T09:13:57.796Z,65038.95
2023-05-19T09:15:00.249Z,65037.93
2023-05-19T09:16:03.145Z,65029.51
2023-05-19T09:17:06.007Z,65016.21
2023-05-19T09:18:10.553Z,64991.25
2023-05-19T09:19:13.484Z,65009.55
2023-05-19T09:20:16.780Z,65029.51
2023-05-19T09:21:18.895Z,65000.11
2023-05-19T09:22:20.842Z,64994.49
2023-05-19T09:23:23.151Z,65056.64
2023-05-19T09:24:25.257Z,65071.14
2023-05-19T09:25:27.144Z,65092.79
2023-05-19T09:26:37.734Z,65096.77
2023-05-19T09:27:39.665Z,65082.79
2023-05-19T09:28:41.550Z,65108.33
2023-05-19T09:29:46.236Z,65089.46
2023-05-19T09:30:48.291Z,65027.12
2023-05-19T09:33:02.408Z,65026.75
2023-05-19T09:34:08.677Z,65026.20
2023-05-19T09:35:12.119Z,65026.20
2023-05-19T09:36:14.785Z,65015.56
2023-05-19T09:37:16.819Z,64993.11
2023-05-19T09:38:19.109Z,65016.76
2023-05-19T09:39:23.344Z,65007.14
2023-05-19T09:40:28.234Z,64997.90
2023-05-19T09:41:30.416Z,64984.04
2023-05-19T09:42:36.075Z,64976.29
2023-05-19T09:43:37.987Z,64989.58
2023-05-19T09:44:41.580Z,64990.05
2023-05-19T09:45:43.719Z,64984.04
2023-05-19T09:46:53.003Z,64998.47
2023-05-19T09:47:55.246Z,65004.09
2023-05-19T09:48:57.593Z,65011.22
2023-05-19T09:49:59.593Z,65003.83
2023-05-19T09:51:04.271Z,64973.04
2023-05-19T09:52:08.314Z,64966.95
2023-05-19T09:54:25.712Z,65030.16
2023-05-19T09:55:28.547Z,65011.40
2023-05-19T09:56:34.616Z,65069.49
2023-05-19T09:57:38.174Z,65093.44
2023-05-19T09:58:41.838Z,65101.66
2023-05-19T09:59:45.933Z,65135.63
2023-05-19T10:00:49.902Z,65106.11
2023-05-19T10:01:54.408Z,65123.89
2023-05-19T10:02:57.853Z,65130.55
2023-05-19T10:04:00.272Z,65067.26
2023-05-19T10:05:03.140Z,65049.04
2023-05-19T10:06:05.989Z,65022.87
2023-05-19T10:07:10.870Z,65006.87
2023-05-19T10:08:13.829Z,65011.77
2023-05-19T10:09:17.084Z,65027.21
2023-05-19T10:10:20.839Z,65027.21
2023-05-19T10:11:24.919Z,65037.39
2023-05-19T10:12:27.415Z,65026.20
2023-05-19T10:13:31.310Z,65023.42
2023-05-19T10:14:33.741Z,65019.54
2023-05-19T10:15:46.698Z,65051.64
2023-05-19T10:16:41.126Z,65026.75
2023-05-19T10:17:44.232Z,65039.05
2023-05-19T10:18:49.190Z,65037.29
2023-05-19T10:19:52.051Z,65082.32
2023-05-19T10:20:55.254Z,65086.12
2023-05-19T10:21:57.149Z,65079.46
2023-05-19T10:22:59.237Z,65043.85
2023-05-19T10:24:01.126Z,65020.09
2023-05-19T10:25:05.557Z,65004.01
2023-05-19T10:26:09.252Z,64990.70
2023-05-19T10:27:14.253Z,64992.91
2023-05-19T10:28:18.812Z,64995.14
2023-05-19T10:29:24.623Z,65021.75
2023-05-19T10:31:52.237Z,65090.11
2023-05-19T10:32:55.260Z,65084.38
2023-05-19T10:34:25.310Z,65098.43
2023-05-19T10:35:45.206Z,65097.69
2023-05-19T10:36:51.024Z,65065.52
2023-05-19T10:38:05.642Z,65092.24
2023-05-19T10:39:11.505Z,65106.66
2023-05-19T10:40:29.471Z,65079.46
2023-05-19T10:41:45.072Z,65131.10
2023-05-19T10:42:54.313Z,65116.73
2023-05-19T10:44:12.045Z,65028.41
2023-05-19T10:45:23.582Z,65002.89
2023-05-19T10:46:27.367Z,65013.90
2023-05-19T10:47:29.460Z,65027.30
2023-05-19T10:48:35.206Z,65049.04
2023-05-19T10:49:38.943Z,65060.05
2023-05-19T10:50:43.743Z,65061.71
2023-05-19T10:51:46.197Z,65051.72
2023-05-19T10:52:55.706Z,65042.75
2023-05-19T10:53:57.719Z,65042.85
2023-05-19T10:55:00.501Z,65045.43
2023-05-19T10:56:03.991Z,65023.42
2023-05-19T10:57:07.460Z,65009.92
2023-05-19T10:58:10.890Z,64993.11
2023-05-19T10:59:30.071Z,64995.69
2023-05-19T11:00:32.818Z,64999.57
2023-05-19T11:01:35.475Z,64975.72
2023-05-19T11:02:39.942Z,64981.83
2023-05-19T11:03:53.859Z,64958.51
2023-05-19T11:04:59.704Z,64964.09
2023-05-19T11:06:28.691Z,64948.99
2023-05-19T11:07:30.743Z,64952.89
2023-05-19T11:08:33.898Z,64974.05
2023-05-19T11:10:51.316Z,64916.57
2023-05-19T11:11:53.824Z,64942.44
2023-05-19T11:12:58.293Z,64920.83
2023-05-19T11:14:00.605Z,64919.25
2023-05-19T11:15:02.723Z,64914.18
2023-05-19T11:16:08.943Z,64904.66
2023-05-19T11:17:15.477Z,64887.56
2023-05-19T11:18:18.903Z,64901.88
2023-05-19T11:19:28.810Z,64899.31
2023-05-19T11:20:31.148Z,64890.89
2023-05-19T11:21:50.743Z,64891.36
2023-05-19T11:23:08.470Z,64856.07
2023-05-19T11:24:31.344Z,64872.03
2023-05-19T11:25:46.166Z,64877.61
2023-05-19T11:26:48.342Z,64863.09
2023-05-19T11:27:52.019Z,64869.63
2023-05-19T11:28:54.030Z,64866.49
2023-05-19T11:29:59.338Z,64844.98
2023-05-19T11:31:01.895Z,64878.60
2023-05-19T11:32:04.780Z,64876.37
2023-05-19T11:33:08.078Z,64880.37
2023-05-19T11:34:10.618Z,64873.61
2023-05-19T11:35:13.369Z,64880.71
2023-05-19T11:36:15.570Z,64855.97
2023-05-19T11:37:17.490Z,64874.81
2023-05-19T11:38:20.586Z,64862.52
2023-05-19T11:39:23.717Z,64888.13
2023-05-19T11:40:26.089Z,64867.06
2023-05-19T11:41:28.012Z,64857.09
2023-05-19T11:42:31.319Z,64858.28
2023-05-19T11:43:33.355Z,64869.17
2023-05-19T11:44:35.346Z,64880.47
2023-05-19T11:45:37.744Z,64864.29
2023-05-19T11:46:40.272Z,64865.95
2023-05-19T11:48:00.140Z,64870.93
2023-05-19T11:48:49.244Z,64863.73
2023-05-19T11:49:51.538Z,64855.89
2023-05-19T11:50:54.117Z,64856.98
2023-05-19T11:51:58.882Z,64873.06
2023-05-19T11:53:00.818Z,64881.48
2023-05-19T11:54:03.459Z,64899.21
2023-05-19T11:55:06.583Z,64891.10
2023-05-19T11:56:08.803Z,64892.11
2023-05-19T11:57:10.743Z,64891.90
2023-05-19T11:58:12.940Z,64909.09
2023-05-19T11:59:14.818Z,64905.31
2023-05-19T12:00:17.997Z,64899.12
2023-05-19T12:01:23.175Z,64913.63
2023-05-19T12:02:25.466Z,64910.39
2023-05-19T12:03:27.632Z,64908.43
2023-05-19T12:04:30.498Z,64905.86
2023-05-19T12:05:37.959Z,64908.54
2023-05-19T12:06:39.293Z,64879.92
2023-05-19T12:07:41.414Z,64892.01
2023-05-19T12:08:44.670Z,64866.49
2023-05-19T12:09:47.106Z,64861.50
2023-05-19T12:10:51.526Z,64855.89
2023-05-19T12:11:54.707Z,64853.86
2023-05-19T12:12:57.485Z,64845.72
2023-05-19T12:14:00.653Z,64853.21
2023-05-19T12:15:03.762Z,64886.37
2023-05-19T12:16:07.799Z,64893.67
2023-05-19T12:17:15.035Z,64885.36
2023-05-19T12:18:16.982Z,64884.34
2023-05-19T12:19:24.229Z,64890.24
2023-05-19T12:20:28.393Z,64878.03
2023-05-19T12:21:34.183Z,64895.98
2023-05-19T12:22:35.390Z,64890.45
2023-05-19T12:23:38.128Z,64892.01
2023-05-19T12:24:41.862Z,64882.50
2023-05-19T12:25:44.808Z,64884.26
2023-05-19T12:26:47.132Z,64885.46
2023-05-19T12:27:49.451Z,64888.50
2023-05-19T12:28:51.489Z,64914.72
2023-05-19T12:29:55.525Z,64906.41
2023-05-19T12:30:57.766Z,64919.71
2023-05-19T12:32:02.001Z,64915.84
2023-05-19T12:33:04.320Z,64911.32
2023-05-19T12:34:06.558Z,64914.64
2023-05-19T12:35:10.026Z,64900.69
2023-05-19T12:36:15.194Z,64893.77
2023-05-19T12:37:17.119Z,64889.80